sensor_id;sensor_type;location;lat;lon;timestamp;pressure;altitude;pressure_sealevel;temperature;humidity
7614;BME280;3848;42.016;23.098;2024-01-10T00:01:01;98190.06;;;-1.19;100.00
7614;BME280;3848;42.016;23.098;2024-01-10T00:03:28;98173.72;;;-1.29;100.00
7614;BME280;3848;42.016;23.098;2024-01-10T00:05:55;98191.69;;;-1.20;100.00
7614;BME280;3848;42.016;23.098;2024-01-10T00:08:22;98154.31;;;-1.49;100.00
7614;BME280;3848;42.016;23.098;2024-01-10T00:10:51;98204.78;;;-1.24;100.00
7614;BME280;3848;42.016;23.098;2024-01-10T00:13:19;98208.28;;;-1.20;100.00
7614;BME280;3848;42.016;23.098;2024-01-10T00:15:47;98207.06;;;-1.12;100.00
7614;BME280;3848;42.016;23.098;2024-01-10T00:18:14;98206.44;;;-1.08;100.00
7614;BME280;3848;42.016;23.098;2024-01-10T00:20:41;98210.66;;;-1.07;100.00
7614;BME280;3848;42.016;23.098;2024-01-10T00:23:08;98213.16;;;-1.07;100.00
7614;BME280;3848;42.016;23.098;2024-01-10T00:25:35;98226.94;;;-1.14;100.00
7614;BME280;3848;42.016;23.098;2024-01-10T00:28:04;98217.81;;;-1.13;100.00
7614;BME280;3848;42.016;23.098;2024-01-10T00:30:31;98169.88;;;-1.39;100.00
7614;BME280;3848;42.016;23.098;2024-01-10T00:32:58;98183.00;;;-1.27;100.00
7614;BME280;3848;42.016;23.098;2024-01-10T00:35:25;98225.19;;;-1.00;100.00
7614;BME280;3848;42.016;23.098;2024-01-10T00:37:52;98230.69;;;-1.06;100.00
7614;BME280;3848;42.016;23.098;2024-01-10T00:40:19;98231.38;;;-1.08;100.00
7614;BME280;3848;42.016;23.098;2024-01-10T00:42:46;98225.97;;;-1.01;100.00
7614;BME280;3848;42.016;23.098;2024-01-10T00:45:16;98227.78;;;-0.99;100.00
7614;BME280;3848;42.016;23.098;2024-01-10T00:47:43;98236.53;;;-1.05;100.00
7614;BME280;3848;42.016;23.098;2024-01-10T00:50:10;98234.41;;;-1.14;100.00
7614;BME280;3848;42.016;23.098;2024-01-10T00:52:37;98239.41;;;-1.14;100.00
7614;BME280;3848;42.016;23.098;2024-01-10T00:55:04;98232.59;;;-1.16;100.00
7614;BME280;3848;42.016;23.098;2024-01-10T00:57:31;98234.31;;;-1.15;100.00
7614;BME280;3848;42.016;23.098;2024-01-10T00:59:58;98235.25;;;-1.13;100.00
7614;BME280;3848;42.016;23.098;2024-01-10T01:02:27;98238.69;;;-1.11;100.00
7614;BME280;3848;42.016;23.098;2024-01-10T01:04:54;98236.91;;;-1.14;100.00
7614;BME280;3848;42.016;23.098;2024-01-10T01:07:21;98234.50;;;-1.12;100.00
7614;BME280;3848;42.016;23.098;2024-01-10T01:09:48;98231.84;;;-1.15;100.00
7614;BME280;3848;42.016;23.098;2024-01-10T01:12:15;98239.41;;;-1.14;100.00
7614;BME280;3848;42.016;23.098;2024-01-10T01:14:42;98241.34;;;-1.08;100.00
7614;BME280;3848;42.016;23.098;2024-01-10T01:17:10;98232.59;;;-1.16;100.00
7614;BME280;3848;42.016;23.098;2024-01-10T01:19:38;98240.19;;;-1.15;100.00
7614;BME280;3848;42.016;23.098;2024-01-10T01:22:05;98243.44;;;-1.16;100.00
7614;BME280;3848;42.016;23.098;2024-01-10T01:24:32;98234.41;;;-1.14;100.00
7614;BME280;3848;42.016;23.098;2024-01-10T01:26:59;98224.53;;;-1.12;100.00
7614;BME280;3848;42.016;23.098;2024-01-10T01:29:26;98227.94;;;-1.10;100.00
7614;BME280;3848;42.016;23.098;2024-01-10T01:31:54;98226.41;;;-1.08;100.00
7614;BME280;3848;42.016;23.098;2024-01-10T01:34:21;98225.53;;;-1.09;100.00
7614;BME280;3848;42.016;23.098;2024-01-10T01:36:49;98218.13;;;-1.07;100.00
7614;BME280;3848;42.016;23.098;2024-01-10T01:39:17;98229.06;;;-1.05;100.00
7614;BME280;3848;42.016;23.098;2024-01-10T01:41:44;98229.75;;;-1.08;100.00
7614;BME280;3848;42.016;23.098;2024-01-10T01:44:11;98233.25;;;-1.04;100.00
7614;BME280;3848;42.016;23.098;2024-01-10T01:46:38;98233.25;;;-1.04;100.00
7614;BME280;3848;42.016;23.098;2024-01-10T01:49:06;98224.69;;;-1.09;100.00
7614;BME280;3848;42.016;23.098;2024-01-10T01:51:35;98224.00;;;-1.07;100.00
7614;BME280;3848;42.016;23.098;2024-01-10T01:54:07;98234.25;;;-1.02;100.00
7614;BME280;3848;42.016;23.098;2024-01-10T01:56:35;98216.84;;;-1.01;100.00
7614;BME280;3848;42.016;23.098;2024-01-10T01:59:03;98213.66;;;-0.98;100.00
7614;BME280;3848;42.016;23.098;2024-01-10T02:01:30;98202.75;;;-1.00;100.00
7614;BME280;3848;42.016;23.098;2024-01-10T02:03:59;98205.16;;;-1.02;100.00
7614;BME280;3848;42.016;23.098;2024-01-10T02:06:28;98211.09;;;-1.00;100.00
7614;BME280;3848;42.016;23.098;2024-01-10T02:08:56;98209.47;;;-0.99;100.00
7614;BME280;3848;42.016;23.098;2024-01-10T02:11:25;98207.31;;;-1.08;100.00
7614;BME280;3848;42.016;23.098;2024-01-10T02:13:53;98197.53;;;-1.19;100.00
7614;BME280;3848;42.016;23.098;2024-01-10T02:16:21;98167.16;;;-1.43;100.00
7614;BME280;3848;42.016;23.098;2024-01-10T02:18:48;98199.25;;;-1.18;100.00
7614;BME280;3848;42.016;23.098;2024-01-10T02:21:16;98193.81;;;-1.11;100.00
7614;BME280;3848;42.016;23.098;2024-01-10T02:23:43;98204.38;;;-1.01;100.00
7614;BME280;3848;42.016;23.098;2024-01-10T02:26:11;98199.31;;;-1.02;100.00
7614;BME280;3848;42.016;23.098;2024-01-10T02:28:38;98199.13;;;-1.05;100.00
7614;BME280;3848;42.016;23.098;2024-01-10T02:31:06;98203.09;;;-1.09;100.00
7614;BME280;3848;42.016;23.098;2024-01-10T02:33:34;98201.22;;;-1.13;100.00
7614;BME280;3848;42.016;23.098;2024-01-10T02:36:01;98206.75;;;-1.18;100.00
7614;BME280;3848;42.016;23.098;2024-01-10T02:38:28;98194.59;;;-1.27;100.00
7614;BME280;3848;42.016;23.098;2024-01-10T02:40:54;98213.69;;;-1.13;100.00
7614;BME280;3848;42.016;23.098;2024-01-10T02:43:23;98207.31;;;-1.08;100.00
7614;BME280;3848;42.016;23.098;2024-01-10T02:45:50;98200.84;;;-1.04;100.00
7614;BME280;3848;42.016;23.098;2024-01-10T02:48:17;98201.81;;;-1.02;100.00
7614;BME280;3848;42.016;23.098;2024-01-10T02:50:44;98204.03;;;-1.07;100.00
7614;BME280;3848;42.016;23.098;2024-01-10T02:53:11;98205.16;;;-1.02;100.00
7614;BME280;3848;42.016;23.098;2024-01-10T02:55:38;98210.56;;;-1.09;100.00
7614;BME280;3848;42.016;23.098;2024-01-10T02:58:05;98215.41;;;-1.12;100.00
7614;BME280;3848;42.016;23.098;2024-01-10T03:00:34;98210.25;;;-1.15;100.00
7614;BME280;3848;42.016;23.098;2024-01-10T03:03:01;98216.09;;;-1.14;100.00
7614;BME280;3848;42.016;23.098;2024-01-10T03:05:27;98208.84;;;-1.10;100.00
7614;BME280;3848;42.016;23.098;2024-01-10T03:07:54;98212.38;;;-1.06;100.00
7614;BME280;3848;42.016;23.098;2024-01-10T03:10:21;98211.09;;;-1.14;100.00
7614;BME280;3848;42.016;23.098;2024-01-10T03:12:48;98213.00;;;-1.25;100.00
7614;BME280;3848;42.016;23.098;2024-01-10T03:15:15;98213.69;;;-1.28;100.00
7614;BME280;3848;42.016;23.098;2024-01-10T03:17:44;98217.25;;;-1.24;100.00
7614;BME280;3848;42.016;23.098;2024-01-10T03:20:11;98215.00;;;-1.19;100.00
7614;BME280;3848;42.016;23.098;2024-01-10T03:22:38;98208.00;;;-1.25;100.00
7614;BME280;3848;42.016;23.098;2024-01-10T03:25:06;98212.16;;;-1.26;100.00
7614;BME280;3848;42.016;23.098;2024-01-10T03:27:33;98218.69;;;-1.28;100.00
7614;BME280;3848;42.016;23.098;2024-01-10T03:30:00;98211.81;;;-1.32;100.00
7614;BME280;3848;42.016;23.098;2024-01-10T03:32:27;98214.31;;;-1.32;100.00
7614;BME280;3848;42.016;23.098;2024-01-10T03:34:55;98215.16;;;-1.31;100.00
7614;BME280;3848;42.016;23.098;2024-01-10T03:37:22;98207.69;;;-1.31;100.00
7614;BME280;3848;42.016;23.098;2024-01-10T03:39:49;98214.31;;;-1.32;100.00
7614;BME280;3848;42.016;23.098;2024-01-10T03:42:16;98215.94;;;-1.32;100.00
7614;BME280;3848;42.016;23.098;2024-01-10T03:44:43;98216.03;;;-1.31;100.00
7614;BME280;3848;42.016;23.098;2024-01-10T03:47:10;98211.97;;;-1.29;100.00
7614;BME280;3848;42.016;23.098;2024-01-10T03:49:37;98198.16;;;-1.38;100.00
7614;BME280;3848;42.016;23.098;2024-01-10T03:52:06;98213.69;;;-1.28;100.00
7614;BME280;3848;42.016;23.098;2024-01-10T03:54:33;98216.97;;;-1.29;100.00
7614;BME280;3848;42.016;23.098;2024-01-10T03:57:00;98217.56;;;-1.33;100.00
7614;BME280;3848;42.016;23.098;2024-01-10T03:59:27;98217.06;;;-1.42;100.00
7614;BME280;3848;42.016;23.098;2024-01-10T04:01:54;98215.28;;;-1.44;100.00
7614;BME280;3848;42.016;23.098;2024-01-10T04:04:21;98221.28;;;-1.41;100.00
7614;BME280;3848;42.016;23.098;2024-01-10T04:06:48;98216.31;;;-1.41;100.00
7614;BME280;3848;42.016;23.098;2024-01-10T04:09:16;98223.00;;;-1.40;100.00
7614;BME280;3848;42.016;23.098;2024-01-10T04:11:43;98229.53;;;-1.42;100.00
7614;BME280;3848;42.016;23.098;2024-01-10T04:14:10;98237.00;;;-1.42;100.00
7614;BME280;3848;42.016;23.098;2024-01-10T04:16:38;98242.09;;;-1.40;100.00
7614;BME280;3848;42.016;23.098;2024-01-10T04:19:04;98243.63;;;-1.42;100.00
7614;BME280;3848;42.016;23.098;2024-01-10T04:21:31;98237.97;;;-1.40;100.00
7614;BME280;3848;42.016;23.098;2024-01-10T04:23:58;98170.84;;;-1.81;100.00
7614;BME280;3848;42.016;23.098;2024-01-10T04:26:27;98245.84;;;-1.47;100.00
7614;BME280;3848;42.016;23.098;2024-01-10T04:28:54;98254.47;;;-1.42;100.00
7614;BME280;3848;42.016;23.098;2024-01-10T04:31:21;98250.50;;;-1.38;100.00
7614;BME280;3848;42.016;23.098;2024-01-10T04:33:48;98258.16;;;-1.35;100.00
7614;BME280;3848;42.016;23.098;2024-01-10T04:36:15;98252.91;;;-1.40;100.00
7614;BME280;3848;42.016;23.098;2024-01-10T04:38:42;98253.69;;;-1.41;100.00
7614;BME280;3848;42.016;23.098;2024-01-10T04:41:09;98256.19;;;-1.41;100.00
7614;BME280;3848;42.016;23.098;2024-01-10T04:43:37;98254.47;;;-1.42;100.00
7614;BME280;3848;42.016;23.098;2024-01-10T04:46:04;98257.53;;;-1.46;100.00
7614;BME280;3848;42.016;23.098;2024-01-10T04:48:31;98255.03;;;-1.46;100.00
7614;BME280;3848;42.016;23.098;2024-01-10T04:50:58;98255.63;;;-1.50;100.00
7614;BME280;3848;42.016;23.098;2024-01-10T04:53:25;98258.31;;;-1.47;100.00
7614;BME280;3848;42.016;23.098;2024-01-10T04:55:52;98269.03;;;-1.48;100.00
7614;BME280;3848;42.016;23.098;2024-01-10T04:58:19;98272.31;;;-1.49;100.00
7614;BME280;3848;42.016;23.098;2024-01-10T05:00:47;98267.31;;;-1.49;100.00
7614;BME280;3848;42.016;23.098;2024-01-10T05:03:14;98274.22;;;-1.45;100.00
7614;BME280;3848;42.016;23.098;2024-01-10T05:05:41;98224.34;;;-1.74;100.00
7614;BME280;3848;42.016;23.098;2024-01-10T05:08:08;98275.69;;;-1.34;100.00
7614;BME280;3848;42.016;23.098;2024-01-10T05:10:35;98275.84;;;-1.31;100.00
7614;BME280;3848;42.016;23.098;2024-01-10T05:13:02;98272.41;;;-1.33;100.00
7614;BME280;3848;42.016;23.098;2024-01-10T05:15:29;98274.03;;;-1.33;100.00
7614;BME280;3848;42.016;23.098;2024-01-10T05:17:57;98274.72;;;-1.36;100.00
7614;BME280;3848;42.016;23.098;2024-01-10T05:20:24;98284.28;;;-1.29;100.00
7614;BME280;3848;42.016;23.098;2024-01-10T05:22:51;98216.94;;;-2.02;100.00
7614;BME280;3848;42.016;23.098;2024-01-10T05:25:18;98286.53;;;-1.76;100.00
7614;BME280;3848;42.016;23.098;2024-01-10T05:27:45;98281.91;;;-1.85;100.00
7614;BME280;3848;42.016;23.098;2024-01-10T05:30:12;98262.81;;;-2.12;100.00
7614;BME280;3848;42.016;23.098;2024-01-10T05:32:39;98284.06;;;-2.04;100.00
7614;BME280;3848;42.016;23.098;2024-01-10T05:35:09;98300.63;;;-2.04;100.00
7614;BME280;3848;42.016;23.098;2024-01-10T05:37:36;98307.59;;;-1.99;100.00
7614;BME280;3848;42.016;23.098;2024-01-10T05:40:04;98310.00;;;-2.00;100.00
7614;BME280;3848;42.016;23.098;2024-01-10T05:42:31;98314.81;;;-2.03;100.00
7614;BME280;3848;42.016;23.098;2024-01-10T05:44:59;98262.03;;;-2.39;100.00
7614;BME280;3848;42.016;23.098;2024-01-10T05:47:27;98309.44;;;-2.09;100.00
7614;BME280;3848;42.016;23.098;2024-01-10T05:49:54;98315.28;;;-2.09;100.00
7614;BME280;3848;42.016;23.098;2024-01-10T05:52:23;98307.50;;;-2.28;100.00
7614;BME280;3848;42.016;23.098;2024-01-10T05:54:50;98317.44;;;-2.28;100.00
7614;BME280;3848;42.016;23.098;2024-01-10T05:57:17;98301.34;;;-2.20;100.00
7614;BME280;3848;42.016;23.098;2024-01-10T05:59:44;98306.31;;;-2.20;100.00
7614;BME280;3848;42.016;23.098;2024-01-10T06:02:11;98315.66;;;-2.44;100.00
7614;BME280;3848;42.016;23.098;2024-01-10T06:04:42;98318.81;;;-2.47;100.00
7614;BME280;3848;42.016;23.098;2024-01-10T06:07:09;98324.56;;;-2.48;100.00
7614;BME280;3848;42.016;23.098;2024-01-10T06:09:37;98323.47;;;-2.38;100.00
7614;BME280;3848;42.016;23.098;2024-01-10T06:12:06;98292.81;;;-2.65;100.00
7614;BME280;3848;42.016;23.098;2024-01-10T06:14:33;98335.06;;;-2.38;100.00
7614;BME280;3848;42.016;23.098;2024-01-10T06:17:01;98263.81;;;-2.78;100.00
7614;BME280;3848;42.016;23.098;2024-01-10T06:19:29;98326.44;;;-2.30;100.00
7614;BME280;3848;42.016;23.098;2024-01-10T06:21:56;98324.06;;;-2.42;100.00
7614;BME280;3848;42.016;23.098;2024-01-10T06:24:24;98328.53;;;-2.36;100.00
7614;BME280;3848;42.016;23.098;2024-01-10T06:26:52;98331.72;;;-2.26;100.00
7614;BME280;3848;42.016;23.098;2024-01-10T06:29:19;98333.88;;;-2.17;100.00
7614;BME280;3848;42.016;23.098;2024-01-10T06:31:46;98337.16;;;-2.31;100.00
7614;BME280;3848;42.016;23.098;2024-01-10T06:34:14;98317.75;;;-2.50;100.00
7614;BME280;3848;42.016;23.098;2024-01-10T06:36:41;98335.16;;;-2.24;100.00
7614;BME280;3848;42.016;23.098;2024-01-10T06:39:09;98345.66;;;-2.15;100.00
7614;BME280;3848;42.016;23.098;2024-01-10T06:41:38;98346.22;;;-2.05;100.00
7614;BME280;3848;42.016;23.098;2024-01-10T06:44:06;98350.53;;;-2.03;100.00
7614;BME280;3848;42.016;23.098;2024-01-10T06:46:33;98348.31;;;-1.98;100.00
7614;BME280;3848;42.016;23.098;2024-01-10T06:49:01;98358.63;;;-1.92;100.00
7614;BME280;3848;42.016;23.098;2024-01-10T06:51:28;98360.59;;;-2.15;100.00
7614;BME280;3848;42.016;23.098;2024-01-10T06:53:55;98364.53;;;-2.18;100.00
7614;BME280;3848;42.016;23.098;2024-01-10T06:56:29;98368.16;;;-2.13;100.00
7614;BME280;3848;42.016;23.098;2024-01-10T06:58:56;98366.31;;;-2.02;100.00
7614;BME280;3848;42.016;23.098;2024-01-10T07:01:25;98367.97;;;-2.03;100.00
7614;BME280;3848;42.016;23.098;2024-01-10T07:03:52;98367.38;;;-1.99;100.00
7614;BME280;3848;42.016;23.098;2024-01-10T07:06:20;98361.34;;;-2.02;100.00
7614;BME280;3848;42.016;23.098;2024-01-10T07:08:48;98363.25;;;-1.98;100.00
7614;BME280;3848;42.016;23.098;2024-01-10T07:11:15;98375.78;;;-1.83;100.00
7614;BME280;3848;42.016;23.098;2024-01-10T07:13:42;98373.09;;;-1.87;100.00
7614;BME280;3848;42.016;23.098;2024-01-10T07:16:10;98360.25;;;-1.93;100.00
7614;BME280;3848;42.016;23.098;2024-01-10T07:18:38;98378.19;;;-2.11;100.00
7614;BME280;3848;42.016;23.098;2024-01-10T07:21:05;98366.34;;;-2.16;100.00
7614;BME280;3848;42.016;23.098;2024-01-10T07:23:34;98386.09;;;-1.91;100.00
7614;BME280;3848;42.016;23.098;2024-01-10T07:26:04;98387.66;;;-1.93;100.00
7614;BME280;3848;42.016;23.098;2024-01-10T07:28:31;98389.00;;;-1.85;100.00
7614;BME280;3848;42.016;23.098;2024-01-10T07:30:58;98388.03;;;-1.87;100.00
7614;BME280;3848;42.016;23.098;2024-01-10T07:33:27;98393.91;;;-1.71;100.00
7614;BME280;3848;42.016;23.098;2024-01-10T07:35:57;98400.50;;;-1.59;100.00
7614;BME280;3848;42.016;23.098;2024-01-10T07:38:24;98405.06;;;-1.51;100.00
7614;BME280;3848;42.016;23.098;2024-01-10T07:40:51;98398.41;;;-1.38;100.00
7614;BME280;3848;42.016;23.098;2024-01-10T07:43:18;98392.63;;;-1.51;100.00
7614;BME280;3848;42.016;23.098;2024-01-10T07:45:45;98396.91;;;-1.49;100.00
7614;BME280;3848;42.016;23.098;2024-01-10T07:48:12;98397.06;;;-1.33;100.00
7614;BME280;3848;42.016;23.098;2024-01-10T07:50:39;98406.19;;;-1.46;100.00
7614;BME280;3848;42.016;23.098;2024-01-10T07:53:07;98408.44;;;-1.51;100.00
7614;BME280;3848;42.016;23.098;2024-01-10T07:55:34;98406.59;;;-1.26;100.00
7614;BME280;3848;42.016;23.098;2024-01-10T07:58:01;98406.38;;;-1.15;100.00
7614;BME280;3848;42.016;23.098;2024-01-10T08:00:28;98399.63;;;-1.03;100.00
7614;BME280;3848;42.016;23.098;2024-01-10T08:02:55;98402.88;;;-0.89;100.00
7614;BME280;3848;42.016;23.098;2024-01-10T08:05:23;98401.50;;;-0.70;100.00
7614;BME280;3848;42.016;23.098;2024-01-10T08:07:50;98385.84;;;-0.67;100.00
7614;BME280;3848;42.016;23.098;2024-01-10T08:10:19;98402.94;;;-0.44;100.00
7614;BME280;3848;42.016;23.098;2024-01-10T08:12:46;98398.72;;;-0.45;100.00
7614;BME280;3848;42.016;23.098;2024-01-10T08:15:13;98399.94;;;-0.38;100.00
7614;BME280;3848;42.016;23.098;2024-01-10T08:17:41;98403.72;;;-0.30;100.00
7614;BME280;3848;42.016;23.098;2024-01-10T08:20:09;98406.97;;;-0.16;100.00
7614;BME280;3848;42.016;23.098;2024-01-10T08:22:36;98407.78;;;-0.01;100.00
7614;BME280;3848;42.016;23.098;2024-01-10T08:25:04;98408.22;;;-0.08;100.00
7614;BME280;3848;42.016;23.098;2024-01-10T08:27:33;98410.81;;;-0.07;100.00
7614;BME280;3848;42.016;23.098;2024-01-10T08:30:00;98408.63;;;-0.01;100.00
7614;BME280;3848;42.016;23.098;2024-01-10T08:32:30;98400.09;;;-0.20;100.00
7614;BME280;3848;42.016;23.098;2024-01-10T08:34:58;98403.03;;;-0.27;100.00
7614;BME280;3848;42.016;23.098;2024-01-10T08:37:25;98399.81;;;-0.10;100.00
7614;BME280;3848;42.016;23.098;2024-01-10T08:39:52;98402.47;;;-0.07;100.00
7614;BME280;3848;42.016;23.098;2024-01-10T08:42:19;98401.06;;;-0.02;100.00
7614;BME280;3848;42.016;23.098;2024-01-10T08:44:48;98399.69;;;0.03;100.00
7614;BME280;3848;42.016;23.098;2024-01-10T08:47:15;98396.25;;;0.01;100.00
7614;BME280;3848;42.016;23.098;2024-01-10T08:49:42;98400.56;;;0.04;100.00
7614;BME280;3848;42.016;23.098;2024-01-10T08:52:09;98391.34;;;0.03;100.00
7614;BME280;3848;42.016;23.098;2024-01-10T08:54:36;98391.72;;;0.10;100.00
7614;BME280;3848;42.016;23.098;2024-01-10T08:57:05;98393.84;;;0.19;100.00
7614;BME280;3848;42.016;23.098;2024-01-10T08:59:32;98396.16;;;0.47;100.00
7614;BME280;3848;42.016;23.098;2024-01-10T09:02:01;98394.19;;;0.57;100.00
7614;BME280;3848;42.016;23.098;2024-01-10T09:04:28;98390.75;;;0.72;100.00
7614;BME280;3848;42.016;23.098;2024-01-10T09:06:55;98384.53;;;0.64;100.00
7614;BME280;3848;42.016;23.098;2024-01-10T09:09:22;98349.59;;;0.49;100.00
7614;BME280;3848;42.016;23.098;2024-01-10T09:11:49;98388.78;;;0.82;100.00
7614;BME280;3848;42.016;23.098;2024-01-10T09:14:16;98383.97;;;0.85;100.00
7614;BME280;3848;42.016;23.098;2024-01-10T09:16:44;98387.28;;;1.02;100.00
7614;BME280;3848;42.016;23.098;2024-01-10T09:19:12;98399.72;;;1.01;100.00
7614;BME280;3848;42.016;23.098;2024-01-10T09:21:39;98392.34;;;1.04;100.00
7614;BME280;3848;42.016;23.098;2024-01-10T09:24:06;98391.56;;;1.39;100.00
7614;BME280;3848;42.016;23.098;2024-01-10T09:26:36;98394.75;;;2.25;100.00
7614;BME280;3848;42.016;23.098;2024-01-10T09:29:03;98386.09;;;2.94;83.19
7614;BME280;3848;42.016;23.098;2024-01-10T09:31:31;98390.16;;;3.53;74.96
7614;BME280;3848;42.016;23.098;2024-01-10T09:33:58;98374.56;;;3.83;70.57
7614;BME280;3848;42.016;23.098;2024-01-10T09:36:26;98363.16;;;4.37;68.77
7614;BME280;3848;42.016;23.098;2024-01-10T09:38:54;98359.97;;;4.17;67.27
7614;BME280;3848;42.016;23.098;2024-01-10T09:41:21;98381.09;;;3.57;67.02
7614;BME280;3848;42.016;23.098;2024-01-10T09:43:49;98371.84;;;3.56;69.03
7614;BME280;3848;42.016;23.098;2024-01-10T09:46:17;98379.25;;;3.53;67.25
7614;BME280;3848;42.016;23.098;2024-01-10T09:48:45;98373.31;;;3.51;71.57
7614;BME280;3848;42.016;23.098;2024-01-10T09:51:13;98365.63;;;3.68;71.85
7614;BME280;3848;42.016;23.098;2024-01-10T09:53:44;98370.41;;;3.83;70.78
7614;BME280;3848;42.016;23.098;2024-01-10T09:56:15;98370.84;;;3.52;68.46
7614;BME280;3848;42.016;23.098;2024-01-10T09:58:43;98366.88;;;3.16;68.43
7614;BME280;3848;42.016;23.098;2024-01-10T10:01:11;98339.31;;;3.17;70.86
7614;BME280;3848;42.016;23.098;2024-01-10T10:03:41;98359.88;;;3.50;70.28
7614;BME280;3848;42.016;23.098;2024-01-10T10:06:12;98359.81;;;3.28;68.74
7614;BME280;3848;42.016;23.098;2024-01-10T10:08:39;98362.44;;;3.52;69.83
7614;BME280;3848;42.016;23.098;2024-01-10T10:11:11;98353.44;;;3.78;71.94
7614;BME280;3848;42.016;23.098;2024-01-10T10:13:39;98335.16;;;4.04;71.24
7614;BME280;3848;42.016;23.098;2024-01-10T10:16:08;98335.09;;;4.03;65.99
7614;BME280;3848;42.016;23.098;2024-01-10T10:18:36;98333.38;;;4.48;66.05
7614;BME280;3848;42.016;23.098;2024-01-10T10:21:07;98333.22;;;4.67;66.64
7614;BME280;3848;42.016;23.098;2024-01-10T10:23:36;98323.44;;;4.28;63.45
7614;BME280;3848;42.016;23.098;2024-01-10T10:26:14;98330.66;;;4.91;65.69
7614;BME280;3848;42.016;23.098;2024-01-10T10:28:46;98306.03;;;5.35;62.37
7614;BME280;3848;42.016;23.098;2024-01-10T10:31:13;98313.06;;;5.99;61.78
7614;BME280;3848;42.016;23.098;2024-01-10T10:33:40;98303.53;;;6.49;59.30
7614;BME280;3848;42.016;23.098;2024-01-10T10:36:07;98301.06;;;6.20;57.18
7614;BME280;3848;42.016;23.098;2024-01-10T10:38:35;98289.16;;;6.46;57.25
7614;BME280;3848;42.016;23.098;2024-01-10T10:41:05;98288.88;;;6.67;56.52
7614;BME280;3848;42.016;23.098;2024-01-10T10:43:37;98276.91;;;6.93;56.35
7614;BME280;3848;42.016;23.098;2024-01-10T10:46:05;98269.28;;;6.27;54.52
7614;BME280;3848;42.016;23.098;2024-01-10T10:48:33;98270.19;;;6.29;54.87
7614;BME280;3848;42.016;23.098;2024-01-10T10:51:04;98273.25;;;6.19;54.74
7614;BME280;3848;42.016;23.098;2024-01-10T10:53:33;98252.66;;;6.66;54.85
7614;BME280;3848;42.016;23.098;2024-01-10T10:56:03;98268.13;;;6.79;54.45
7614;BME280;3848;42.016;23.098;2024-01-10T10:58:38;98257.88;;;6.72;54.80
7614;BME280;3848;42.016;23.098;2024-01-10T11:01:06;98249.50;;;6.75;53.81
7614;BME280;3848;42.016;23.098;2024-01-10T11:03:35;98256.78;;;7.32;54.44
7614;BME280;3848;42.016;23.098;2024-01-10T11:06:03;98250.19;;;7.04;53.15
7614;BME280;3848;42.016;23.098;2024-01-10T11:08:35;98247.19;;;6.84;53.65
7614;BME280;3848;42.016;23.098;2024-01-10T11:11:04;98240.75;;;6.95;53.50
7614;BME280;3848;42.016;23.098;2024-01-10T11:13:53;98249.34;;;6.36;53.15
7614;BME280;3848;42.016;23.098;2024-01-10T11:19:41;98244.09;;;6.28;55.65
7614;BME280;3848;42.016;23.098;2024-01-10T11:22:20;98234.34;;;6.75;55.45
7614;BME280;3848;42.016;23.098;2024-01-10T11:24:52;98231.66;;;7.03;55.65
7614;BME280;3848;42.016;23.098;2024-01-10T11:27:19;98219.38;;;7.19;54.92
7614;BME280;3848;42.016;23.098;2024-01-10T11:29:48;98232.41;;;7.36;53.48
7614;BME280;3848;42.016;23.098;2024-01-10T11:32:16;98234.56;;;6.50;53.61
7614;BME280;3848;42.016;23.098;2024-01-10T11:35:05;98224.53;;;6.53;55.42
7614;BME280;3848;42.016;23.098;2024-01-10T11:37:38;98211.91;;;6.21;54.33
7614;BME280;3848;42.016;23.098;2024-01-10T11:40:07;98224.53;;;6.53;56.38
7614;BME280;3848;42.016;23.098;2024-01-10T11:42:42;98217.47;;;6.41;55.69
7614;BME280;3848;42.016;23.098;2024-01-10T11:47:59;98207.38;;;5.49;58.06
7614;BME280;3848;42.016;23.098;2024-01-10T11:50:27;98207.41;;;4.96;59.12
7614;BME280;3848;42.016;23.098;2024-01-10T11:52:56;98212.69;;;4.51;60.53
7614;BME280;3848;42.016;23.098;2024-01-10T11:55:48;98203.41;;;4.24;64.25
7614;BME280;3848;42.016;23.098;2024-01-10T11:58:17;98203.19;;;3.94;62.78
7614;BME280;3848;42.016;23.098;2024-01-10T12:00:46;98195.53;;;3.67;64.23
7614;BME280;3848;42.016;23.098;2024-01-10T12:03:14;98197.47;;;3.52;68.14
7614;BME280;3848;42.016;23.098;2024-01-10T12:05:42;98181.34;;;3.46;73.08
7614;BME280;3848;42.016;23.098;2024-01-10T12:08:09;98182.72;;;3.15;74.40
7614;BME280;3848;42.016;23.098;2024-01-10T12:10:36;98184.00;;;3.05;79.14
7614;BME280;3848;42.016;23.098;2024-01-10T12:13:04;98179.38;;;2.94;81.36
7614;BME280;3848;42.016;23.098;2024-01-10T12:15:31;98187.22;;;2.81;77.91
7614;BME280;3848;42.016;23.098;2024-01-10T12:18:01;98176.63;;;2.67;81.83
7614;BME280;3848;42.016;23.098;2024-01-10T12:20:28;98169.22;;;2.70;88.78
7614;BME280;3848;42.016;23.098;2024-01-10T12:22:55;98176.44;;;2.83;91.33
7614;BME280;3848;42.016;23.098;2024-01-10T12:25:22;98175.25;;;2.73;95.93
7614;BME280;3848;42.016;23.098;2024-01-10T12:27:50;98179.78;;;2.61;92.18
7614;BME280;3848;42.016;23.098;2024-01-10T12:30:17;98177.00;;;2.34;95.90
7614;BME280;3848;42.016;23.098;2024-01-10T12:32:44;98164.47;;;2.34;96.50
7614;BME280;3848;42.016;23.098;2024-01-10T12:35:13;98176.28;;;2.58;100.00
7614;BME280;3848;42.016;23.098;2024-01-10T12:37:53;98164.88;;;2.66;100.00
7614;BME280;3848;42.016;23.098;2024-01-10T12:40:21;98161.78;;;2.71;100.00
7614;BME280;3848;42.016;23.098;2024-01-10T12:42:48;98160.84;;;2.69;98.34
7614;BME280;3848;42.016;23.098;2024-01-10T12:45:21;98166.72;;;2.70;100.00
7614;BME280;3848;42.016;23.098;2024-01-10T12:47:48;98168.47;;;2.71;94.35
7614;BME280;3848;42.016;23.098;2024-01-10T12:50:17;98157.81;;;2.56;98.04
7614;BME280;3848;42.016;23.098;2024-01-10T12:52:46;98161.28;;;2.59;96.48
7614;BME280;3848;42.016;23.098;2024-01-10T12:55:14;98153.75;;;2.59;100.00
7614;BME280;3848;42.016;23.098;2024-01-10T12:57:41;98145.31;;;2.57;99.93
7614;BME280;3848;42.016;23.098;2024-01-10T13:00:09;98119.34;;;2.34;100.00
7614;BME280;3848;42.016;23.098;2024-01-10T13:02:37;98148.69;;;2.58;100.00
7614;BME280;3848;42.016;23.098;2024-01-10T13:05:06;98144.41;;;2.76;100.00
7614;BME280;3848;42.016;23.098;2024-01-10T13:07:36;98154.53;;;2.79;100.00
7614;BME280;3848;42.016;23.098;2024-01-10T13:10:03;98150.91;;;2.71;100.00
7614;BME280;3848;42.016;23.098;2024-01-10T13:12:30;98153.88;;;2.83;100.00
7614;BME280;3848;42.016;23.098;2024-01-10T13:14:57;98145.31;;;2.78;100.00
7614;BME280;3848;42.016;23.098;2024-01-10T13:17:24;98159.00;;;2.86;100.00